createdAt,value
2017-09-07T00:01:06.560Z,16.90
2017-09-07T00:03:35.328Z,16.90
2017-09-07T00:06:03.786Z,16.90
2017-09-07T00:08:32.974Z,16.90
2017-09-07T00:11:01.404Z,16.90
2017-09-07T00:13:29.857Z,16.90
2017-09-07T00:15:58.280Z,16.90
2017-09-07T00:18:26.704Z,17.00
2017-09-07T00:20:55.294Z,17.00
2017-09-07T00:23:23.728Z,17.00
2017-09-07T00:25:52.148Z,17.00
2017-09-07T00:28:21.337Z,16.90
2017-09-07T00:30:49.749Z,16.90
2017-09-07T00:33:17.821Z,16.90
2017-09-07T00:35:46.257Z,16.90
2017-09-07T00:38:14.680Z,16.90
2017-09-07T00:40:43.868Z,16.80
2017-09-07T00:43:12.320Z,16.80
2017-09-07T00:45:40.745Z,16.80
2017-09-07T00:48:09.199Z,16.80
2017-09-07T00:50:36.948Z,16.80
2017-09-07T00:53:05.433Z,16.70
2017-09-07T00:55:33.872Z,16.70
2017-09-07T00:58:02.294Z,16.70
2017-09-07T01:00:30.704Z,16.70
2017-09-07T01:02:59.128Z,16.70
2017-09-07T01:05:27.654Z,16.70
2017-09-07T01:07:56.069Z,16.70
2017-09-07T01:10:24.489Z,16.70
2017-09-07T01:12:52.932Z,16.70
2017-09-07T01:15:20.996Z,16.60
2017-09-07T01:17:49.417Z,16.60
2017-09-07T01:20:17.848Z,16.60
2017-09-07T01:22:45.917Z,16.60
2017-09-07T01:25:13.652Z,16.60
2017-09-07T01:27:42.101Z,16.70
2017-09-07T01:30:09.812Z,16.60
2017-09-07T01:32:38.229Z,16.60
2017-09-07T01:35:06.657Z,16.60
2017-09-07T01:37:35.073Z,16.60
2017-09-07T01:40:03.493Z,16.60
2017-09-07T01:42:31.936Z,16.50
2017-09-07T01:45:00.352Z,16.50
2017-09-07T01:47:28.772Z,16.50
2017-09-07T01:49:57.228Z,16.60
2017-09-07T01:52:25.634Z,16.60
2017-09-07T01:54:54.058Z,16.60
2017-09-07T01:57:22.549Z,16.60
2017-09-07T01:59:50.621Z,16.60
2017-09-07T02:02:18.348Z,16.50
2017-09-07T02:04:46.802Z,16.60
2017-09-07T02:07:14.871Z,16.50
2017-09-07T02:09:42.973Z,16.50
2017-09-07T02:12:11.380Z,16.50
2017-09-07T02:14:39.808Z,16.50
2017-09-07T02:17:08.252Z,16.50
2017-09-07T02:19:36.676Z,16.40
2017-09-07T02:22:05.296Z,16.40
2017-09-07T02:24:33.717Z,16.30
2017-09-07T02:27:01.951Z,16.40
2017-09-07T02:29:30.397Z,16.40
2017-09-07T02:31:58.833Z,16.40
2017-09-07T02:34:27.324Z,16.50
2017-09-07T02:36:55.423Z,16.50
2017-09-07T02:39:23.898Z,16.50
2017-09-07T02:41:52.369Z,16.40
2017-09-07T02:44:20.825Z,16.40
2017-09-07T02:46:49.321Z,16.40
2017-09-07T02:49:17.788Z,16.40
2017-09-07T02:51:46.266Z,16.40
2017-09-07T02:54:14.736Z,16.40
2017-09-07T02:56:43.184Z,16.40
2017-09-07T02:59:11.633Z,16.40
2017-09-07T03:01:40.047Z,16.40
2017-09-07T03:04:08.500Z,16.40
2017-09-07T03:06:36.943Z,16.40
2017-09-07T03:09:05.008Z,16.30
2017-09-07T03:11:33.451Z,16.30
2017-09-07T03:14:01.884Z,16.30
2017-09-07T03:16:30.304Z,16.30
2017-09-07T03:18:58.729Z,16.30
2017-09-07T03:21:27.148Z,16.30
2017-09-07T03:23:55.863Z,16.30
2017-09-07T03:26:24.296Z,16.30
2017-09-07T03:28:52.713Z,16.30
2017-09-07T03:31:21.143Z,16.30
2017-09-07T03:33:49.577Z,16.30
2017-09-07T03:36:18.017Z,16.30
2017-09-07T03:38:46.240Z,16.30
2017-09-07T03:41:14.668Z,16.30
2017-09-07T03:43:43.088Z,16.30
2017-09-07T03:46:11.523Z,16.30
2017-09-07T03:48:39.963Z,16.30
2017-09-07T03:51:08.389Z,16.30
2017-09-07T03:53:36.805Z,16.20
2017-09-07T03:56:05.240Z,16.20
2017-09-07T03:58:33.688Z,16.20
2017-09-07T04:01:02.144Z,16.30
2017-09-07T04:03:30.563Z,16.20
2017-09-07T04:05:59.811Z,16.30
2017-09-07T04:08:28.253Z,16.30
2017-09-07T04:10:56.674Z,16.30
2017-09-07T04:13:25.108Z,16.30
2017-09-07T04:15:53.524Z,16.40
2017-09-07T04:18:22.732Z,16.40
2017-09-07T04:20:51.163Z,16.40
2017-09-07T04:23:19.591Z,16.40
2017-09-07T04:25:48.029Z,16.40
2017-09-07T04:28:16.457Z,16.30
2017-09-07T04:30:44.872Z,16.30
2017-09-07T04:33:13.325Z,16.30
2017-09-07T04:35:41.736Z,16.30
2017-09-07T04:38:10.163Z,16.30
2017-09-07T04:40:38.625Z,16.30
2017-09-07T04:43:07.055Z,16.30
2017-09-07T04:45:35.476Z,16.30
2017-09-07T04:48:03.917Z,16.30
2017-09-07T04:50:32.366Z,16.30
2017-09-07T04:53:00.776Z,16.30
2017-09-07T04:55:29.227Z,16.40
2017-09-07T04:57:57.653Z,16.40
2017-09-07T05:00:26.091Z,16.40
2017-09-07T05:02:54.550Z,16.40
2017-09-07T05:05:22.992Z,16.40
2017-09-07T05:07:51.401Z,16.40
2017-09-07T05:10:19.868Z,16.40
2017-09-07T05:12:48.087Z,16.30
2017-09-07T05:15:16.523Z,16.30
2017-09-07T05:17:44.985Z,16.30
2017-09-07T05:20:13.428Z,16.40
2017-09-07T05:22:41.844Z,16.40
2017-09-07T05:25:10.469Z,16.40
2017-09-07T05:27:38.900Z,16.40
2017-09-07T05:30:07.329Z,16.40
2017-09-07T05:32:35.765Z,16.40
2017-09-07T05:35:04.184Z,16.40
2017-09-07T05:37:32.632Z,16.40
2017-09-07T05:40:01.073Z,16.40
2017-09-07T05:42:29.484Z,16.40
2017-09-07T05:44:57.920Z,16.40
2017-09-07T05:47:26.405Z,16.40
2017-09-07T05:49:54.629Z,16.40
2017-09-07T05:52:23.064Z,16.40
2017-09-07T05:54:52.089Z,16.40
2017-09-07T05:57:20.517Z,16.40
2017-09-07T05:59:48.928Z,16.50
2017-09-07T06:02:17.373Z,16.50
2017-09-07T06:04:46.097Z,16.50
2017-09-07T06:07:14.521Z,16.50
2017-09-07T06:09:43.001Z,16.50
2017-09-07T06:12:11.413Z,16.40
2017-09-07T06:14:39.824Z,16.40
2017-09-07T06:17:08.289Z,16.40
2017-09-07T06:19:36.703Z,16.40
2017-09-07T06:22:05.129Z,16.30
2017-09-07T06:24:33.582Z,16.20
2017-09-07T06:27:02.018Z,16.20
2017-09-07T06:29:30.416Z,16.20
2017-09-07T06:31:58.876Z,16.10
2017-09-07T06:34:27.288Z,16.10
2017-09-07T06:36:55.710Z,16.10
2017-09-07T06:39:24.138Z,16.10
2017-09-07T06:41:52.561Z,16.10
2017-09-07T06:44:20.985Z,16.20
2017-09-07T06:46:49.501Z,16.20
2017-09-07T06:49:18.158Z,16.20
2017-09-07T06:51:47.586Z,16.20
2017-09-07T06:54:16.114Z,16.10
2017-09-07T06:56:44.641Z,16.10
2017-09-07T06:59:13.135Z,16.20
2017-09-07T07:01:41.993Z,16.20
2017-09-07T07:04:10.491Z,16.30
2017-09-07T07:06:39.025Z,16.30
2017-09-07T07:09:07.468Z,16.20
2017-09-07T07:11:35.930Z,16.30
2017-09-07T07:14:04.522Z,16.40
2017-09-07T07:16:33.335Z,16.50
2017-09-07T07:19:01.858Z,16.50
2017-09-07T07:21:30.612Z,16.50
2017-09-07T07:23:59.271Z,16.60
2017-09-07T07:26:28.164Z,16.60
2017-09-07T07:28:56.662Z,16.70
2017-09-07T07:31:25.254Z,16.70
2017-09-07T07:33:53.898Z,16.70
2017-09-07T07:36:22.313Z,16.70
2017-09-07T07:38:51.038Z,16.80
2017-09-07T07:41:19.558Z,16.80
2017-09-07T07:43:48.275Z,16.90
2017-09-07T07:46:16.721Z,16.80
2017-09-07T07:48:45.464Z,16.80
2017-09-07T07:51:14.008Z,16.80
2017-09-07T07:53:42.530Z,16.90
2017-09-07T07:56:11.102Z,16.80
2017-09-07T07:58:39.674Z,16.80
2017-09-07T08:01:08.141Z,16.80
2017-09-07T08:03:36.750Z,16.90
2017-09-07T08:06:05.184Z,17.00
2017-09-07T08:08:33.764Z,17.00
2017-09-07T08:11:02.475Z,17.10
2017-09-07T08:13:30.922Z,17.10
2017-09-07T08:15:59.765Z,17.20
2017-09-07T08:18:28.197Z,17.30
2017-09-07T08:20:56.653Z,17.40
2017-09-07T08:23:25.320Z,17.40
2017-09-07T08:25:53.740Z,17.50
2017-09-07T08:28:22.172Z,17.50
2017-09-07T08:30:50.259Z,17.60
2017-09-07T08:33:18.676Z,17.60
2017-09-07T08:35:46.417Z,17.60
2017-09-07T08:38:14.856Z,17.70
2017-09-07T08:40:44.108Z,18.00
2017-09-07T08:43:12.830Z,18.00
2017-09-07T08:45:42.053Z,18.00
2017-09-07T08:48:10.634Z,17.90
2017-09-07T08:50:39.067Z,17.90
2017-09-07T08:53:07.501Z,17.90
2017-09-07T08:55:35.909Z,17.90
2017-09-07T08:58:04.345Z,17.90
2017-09-07T09:00:32.780Z,17.90
2017-09-07T09:03:01.238Z,17.80
2017-09-07T09:05:30.347Z,17.80
2017-09-07T09:07:58.818Z,17.90
2017-09-07T09:10:27.242Z,17.80
2017-09-07T09:12:55.649Z,17.80
2017-09-07T09:15:24.845Z,17.80
2017-09-07T09:17:53.280Z,17.80
2017-09-07T09:20:21.708Z,17.90
2017-09-07T09:22:50.160Z,17.90
2017-09-07T09:25:18.578Z,18.00
2017-09-07T09:27:47.002Z,18.00
2017-09-07T09:30:15.469Z,18.10
2017-09-07T09:32:43.885Z,18.10
2017-09-07T09:35:13.113Z,18.00
2017-09-07T09:37:41.573Z,18.00
2017-09-07T09:40:10.262Z,18.00
2017-09-07T09:42:38.682Z,18.10
2017-09-07T09:45:07.392Z,18.00
2017-09-07T09:47:35.814Z,18.00
2017-09-07T09:50:04.239Z,17.90
2017-09-07T09:52:32.686Z,18.00
2017-09-07T09:55:01.129Z,18.00
2017-09-07T09:57:30.308Z,18.10
2017-09-07T09:59:58.816Z,18.00
2017-09-07T10:02:27.242Z,18.20
2017-09-07T10:04:55.478Z,18.30
2017-09-07T10:07:23.933Z,18.50
2017-09-07T10:09:53.128Z,19.50
2017-09-07T10:12:21.831Z,19.50
2017-09-07T10:14:50.303Z,19.90
2017-09-07T10:17:19.484Z,19.70
2017-09-07T10:19:48.665Z,19.60
2017-09-07T10:22:17.180Z,19.60
2017-09-07T10:24:45.606Z,19.50
2017-09-07T10:27:14.021Z,19.40
2017-09-07T10:29:42.545Z,19.40
2017-09-07T10:32:11.035Z,19.40
2017-09-07T10:34:39.580Z,19.60
2017-09-07T10:37:08.804Z,19.70
2017-09-07T10:39:37.230Z,19.70
2017-09-07T10:42:05.648Z,19.60
2017-09-07T10:44:34.844Z,19.50
2017-09-07T10:47:03.268Z,19.50
2017-09-07T10:49:31.713Z,19.80
2017-09-07T10:52:00.125Z,19.90
2017-09-07T10:54:28.998Z,20.00
2017-09-07T10:56:57.070Z,20.10
2017-09-07T10:59:26.282Z,20.40
2017-09-07T11:01:54.813Z,20.40
2017-09-07T11:04:23.995Z,20.80
2017-09-07T11:06:52.894Z,20.80
2017-09-07T11:09:21.361Z,20.90
2017-09-07T11:11:49.797Z,21.00
2017-09-07T11:14:18.231Z,21.30
2017-09-07T11:16:46.660Z,21.50
2017-09-07T11:19:15.341Z,21.60
2017-09-07T11:21:43.806Z,21.60
2017-09-07T11:24:12.450Z,21.50
2017-09-07T11:26:41.709Z,21.40
2017-09-07T11:29:10.601Z,21.40
2017-09-07T11:31:39.155Z,21.40
2017-09-07T11:34:07.586Z,21.40
2017-09-07T11:36:36.390Z,21.30
2017-09-07T11:39:03.980Z,21.20
2017-09-07T11:41:32.495Z,21.30
2017-09-07T11:44:01.166Z,21.40
2017-09-07T11:46:29.628Z,21.60
2017-09-07T11:48:58.078Z,21.60
2017-09-07T11:51:26.537Z,21.50
2017-09-07T11:53:54.976Z,21.30
2017-09-07T11:56:23.575Z,21.30
2017-09-07T11:58:52.022Z,21.40
2017-09-07T12:01:20.453Z,21.40
2017-09-07T12:03:49.595Z,21.40
2017-09-07T12:06:18.049Z,21.40
2017-09-07T12:08:46.536Z,21.30
2017-09-07T12:11:15.730Z,21.00
2017-09-07T12:13:44.278Z,21.00
2017-09-07T12:16:12.782Z,20.90
2017-09-07T12:18:41.209Z,20.90
2017-09-07T12:21:09.681Z,20.80
2017-09-07T12:23:38.138Z,20.80
2017-09-07T12:26:06.854Z,20.80
2017-09-07T12:28:35.322Z,20.90
2017-09-07T12:31:03.849Z,21.10
2017-09-07T12:33:32.295Z,21.10
2017-09-07T12:36:00.729Z,21.10
2017-09-07T12:38:30.053Z,21.10
2017-09-07T12:40:58.522Z,21.10
2017-09-07T12:43:26.937Z,21.20
2017-09-07T12:45:58.335Z,21.20
2017-09-07T12:48:26.811Z,21.20
2017-09-07T12:50:56.248Z,21.10
2017-09-07T12:53:24.741Z,21.10
2017-09-07T12:55:53.164Z,21.00
2017-09-07T12:58:21.617Z,20.90
2017-09-07T13:00:50.043Z,20.80
2017-09-07T13:03:18.548Z,20.80
2017-09-07T13:05:46.984Z,21.10
2017-09-07T13:08:15.409Z,21.30
2017-09-07T13:10:43.842Z,21.20
2017-09-07T13:13:12.265Z,21.10
2017-09-07T13:15:40.721Z,21.00
2017-09-07T13:18:09.921Z,20.90
2017-09-07T13:20:38.356Z,21.00
2017-09-07T13:23:06.801Z,21.00
2017-09-07T13:25:35.265Z,20.90
2017-09-07T13:28:03.945Z,20.80
2017-09-07T13:30:32.382Z,20.60
2017-09-07T13:33:00.817Z,20.50
2017-09-07T13:35:29.101Z,20.40
2017-09-07T13:37:57.546Z,20.30
2017-09-07T13:40:26.367Z,20.30
2017-09-07T13:42:55.042Z,20.20
2017-09-07T13:45:23.490Z,20.20
2017-09-07T13:47:52.713Z,20.30
2017-09-07T13:50:21.138Z,20.20
2017-09-07T13:52:49.674Z,20.40
2017-09-07T13:55:18.125Z,20.40
2017-09-07T13:57:46.821Z,20.30
2017-09-07T14:00:16.028Z,20.20
2017-09-07T14:02:44.458Z,20.20
2017-09-07T14:05:12.930Z,20.10
2017-09-07T14:07:41.654Z,20.10
2017-09-07T14:10:10.153Z,20.00
2017-09-07T14:12:38.599Z,20.00
2017-09-07T14:15:07.028Z,20.00
2017-09-07T14:17:35.704Z,20.00
2017-09-07T14:20:04.382Z,19.90
2017-09-07T14:22:32.828Z,19.90
2017-09-07T14:25:01.248Z,19.80
2017-09-07T14:27:29.665Z,19.70
2017-09-07T14:29:58.133Z,19.80
2017-09-07T14:32:26.564Z,19.80
2017-09-07T14:34:55.008Z,19.80
2017-09-07T14:37:23.445Z,19.90
2017-09-07T14:39:51.700Z,19.90
2017-09-07T14:42:20.291Z,19.90
2017-09-07T14:44:48.757Z,19.90
2017-09-07T14:47:17.192Z,19.90
2017-09-07T14:49:45.632Z,19.90
2017-09-07T14:52:14.072Z,19.80
2017-09-07T14:54:42.559Z,19.80
2017-09-07T14:57:10.798Z,19.70
2017-09-07T14:59:39.225Z,19.70
2017-09-07T15:02:08.450Z,19.60
2017-09-07T15:04:36.925Z,19.60
2017-09-07T15:07:05.511Z,19.60
2017-09-07T15:09:33.948Z,19.60
2017-09-07T15:12:02.374Z,19.60
2017-09-07T15:14:30.850Z,19.60
2017-09-07T15:16:59.310Z,19.60
2017-09-07T15:19:28.530Z,19.60
2017-09-07T15:21:57.075Z,19.50
2017-09-07T15:24:25.743Z,19.60
2017-09-07T15:26:54.169Z,19.50
2017-09-07T15:29:22.594Z,19.50
2017-09-07T15:31:51.250Z,19.50
2017-09-07T15:34:19.706Z,19.40
2017-09-07T15:36:48.132Z,19.40
2017-09-07T15:39:16.567Z,19.40
2017-09-07T15:41:45.009Z,19.40
2017-09-07T15:44:13.484Z,19.40
2017-09-07T15:46:41.918Z,19.40
2017-09-07T15:49:10.366Z,19.40
2017-09-07T15:51:38.778Z,19.40
2017-09-07T15:54:07.196Z,19.40
2017-09-07T15:56:35.686Z,19.30
2017-09-07T15:59:04.123Z,19.40
2017-09-07T16:01:32.556Z,19.30
2017-09-07T16:04:01.006Z,19.30
2017-09-07T16:06:29.710Z,19.40
2017-09-07T16:08:58.133Z,19.30
2017-09-07T16:11:26.597Z,19.30
2017-09-07T16:13:55.021Z,19.20
2017-09-07T16:16:23.485Z,19.30
2017-09-07T16:18:51.911Z,19.20
2017-09-07T16:21:20.518Z,19.10
2017-09-07T16:23:48.942Z,19.10
2017-09-07T16:26:17.372Z,19.10
2017-09-07T16:28:45.821Z,19.10
2017-09-07T16:31:14.245Z,19.10
2017-09-07T16:33:42.947Z,19.00
2017-09-07T16:39:15.014Z,19.00
2017-09-07T16:41:43.465Z,19.00
2017-09-07T16:44:11.917Z,18.90
2017-09-07T16:46:41.014Z,18.90
2017-09-07T16:49:09.431Z,18.90
2017-09-07T16:51:37.863Z,18.90
2017-09-07T16:54:06.304Z,18.90
2017-09-07T16:56:34.721Z,18.90
2017-09-07T16:59:03.179Z,18.80
2017-09-07T17:01:31.473Z,18.80
2017-09-07T17:03:59.707Z,18.70
2017-09-07T17:06:27.956Z,18.70
2017-09-07T17:08:56.390Z,18.70
2017-09-07T17:11:25.196Z,18.70
2017-09-07T17:13:54.003Z,18.70
2017-09-07T17:16:23.125Z,18.70
2017-09-07T17:18:51.580Z,18.70
2017-09-07T17:21:20.133Z,18.70
2017-09-07T17:23:49.210Z,18.70
2017-09-07T17:26:58.940Z,18.70
2017-09-07T17:29:27.312Z,18.70
2017-09-07T17:31:55.982Z,18.70
2017-09-07T17:34:24.314Z,18.70
2017-09-07T17:36:53.307Z,18.60
2017-09-07T17:39:23.482Z,18.70
2017-09-07T17:41:51.981Z,18.70
2017-09-07T17:44:20.434Z,18.70
2017-09-07T17:46:48.853Z,18.70
2017-09-07T17:49:18.088Z,18.70
2017-09-07T17:51:46.766Z,18.70
2017-09-07T17:54:15.563Z,18.70
2017-09-07T17:56:44.131Z,18.70
2017-09-07T17:59:12.562Z,18.70
2017-09-07T18:01:40.997Z,18.60
2017-09-07T18:04:09.412Z,18.70
2017-09-07T18:06:38.076Z,18.70
2017-09-07T18:09:07.014Z,18.70
2017-09-07T18:11:35.449Z,18.70
2017-09-07T18:14:03.956Z,18.70
2017-09-07T18:16:33.452Z,18.60
2017-09-07T18:19:01.895Z,18.60
2017-09-07T18:21:30.373Z,18.60
2017-09-07T18:23:58.802Z,18.60
2017-09-07T18:26:27.258Z,18.60
2017-09-07T18:28:55.510Z,18.60
2017-09-07T18:31:23.963Z,18.60
2017-09-07T18:33:53.163Z,18.50
2017-09-07T18:36:21.571Z,18.40
2017-09-07T18:38:50.020Z,18.50
2017-09-07T18:41:19.213Z,18.40
2017-09-07T18:43:48.416Z,18.30
2017-09-07T18:46:17.639Z,18.30
2017-09-07T18:48:46.060Z,18.30
2017-09-07T18:51:14.542Z,18.30
2017-09-07T18:53:42.986Z,18.40
2017-09-07T18:56:11.448Z,18.40
2017-09-07T18:58:40.139Z,18.40
2017-09-07T19:01:08.575Z,18.40
2017-09-07T19:03:37.056Z,18.30
2017-09-07T19:06:05.502Z,18.30
2017-09-07T19:08:33.946Z,18.20
2017-09-07T19:11:02.398Z,18.20
2017-09-07T19:13:31.142Z,18.20
2017-09-07T19:15:59.642Z,18.20
2017-09-07T19:18:28.087Z,18.20
2017-09-07T19:20:56.514Z,18.30
2017-09-07T19:23:26.566Z,18.20
2017-09-07T19:25:55.019Z,18.20
2017-09-07T19:28:23.482Z,18.20
2017-09-07T19:30:51.910Z,18.20
2017-09-07T19:33:22.960Z,18.20
2017-09-07T19:35:51.421Z,18.20
2017-09-07T19:38:19.866Z,18.10
2017-09-07T19:40:50.090Z,18.10
2017-09-07T19:43:18.385Z,18.10
2017-09-07T19:45:46.818Z,18.10
2017-09-07T19:48:15.274Z,18.20
2017-09-07T19:50:43.704Z,18.10
2017-09-07T19:53:12.135Z,18.10
2017-09-07T19:55:41.189Z,18.10
2017-09-07T19:58:11.127Z,18.10
2017-09-07T20:00:39.393Z,18.10
2017-09-07T20:03:07.882Z,18.10
2017-09-07T20:05:36.178Z,18.10
2017-09-07T20:08:04.511Z,18.10
2017-09-07T20:10:32.982Z,18.00
2017-09-07T20:13:01.762Z,18.00
2017-09-07T20:15:30.197Z,18.00
2017-09-07T20:17:58.672Z,18.00
2017-09-07T20:20:27.119Z,18.00
2017-09-07T20:22:55.545Z,18.00
2017-09-07T20:25:24.001Z,18.00
2017-09-07T20:27:52.456Z,18.10
2017-09-07T20:30:21.661Z,18.10
2017-09-07T20:32:50.158Z,18.10
2017-09-07T20:35:18.591Z,18.00
2017-09-07T20:37:47.069Z,18.00
2017-09-07T20:40:15.537Z,17.90
2017-09-07T20:42:43.982Z,18.00
2017-09-07T20:45:12.419Z,18.00
2017-09-07T20:47:40.914Z,17.90
2017-09-07T20:50:10.113Z,18.00
2017-09-07T20:52:38.817Z,18.00
2017-09-07T20:55:07.250Z,18.00
2017-09-07T20:57:35.680Z,17.90
2017-09-07T21:00:04.106Z,18.00
2017-09-07T21:02:32.582Z,17.90
2017-09-07T21:05:01.023Z,17.90
2017-09-07T21:07:29.457Z,17.90
2017-09-07T21:09:57.937Z,18.00
2017-09-07T21:12:26.352Z,18.00
2017-09-07T21:14:54.911Z,18.00
2017-09-07T21:17:23.397Z,17.90
2017-09-07T21:19:52.610Z,17.90
2017-09-07T21:22:20.876Z,17.80
2017-09-07T21:24:50.101Z,17.90
2017-09-07T21:27:18.566Z,17.80
2017-09-07T21:29:46.994Z,17.80
2017-09-07T21:32:15.758Z,17.80
2017-09-07T21:34:44.202Z,17.80
2017-09-07T21:37:13.439Z,17.70
2017-09-07T21:39:41.906Z,17.70
2017-09-07T21:42:10.330Z,17.70
2017-09-07T21:44:38.755Z,17.70
2017-09-07T21:47:07.225Z,17.70
2017-09-07T21:49:35.667Z,17.70
2017-09-07T21:52:04.085Z,17.70
2017-09-07T21:54:32.574Z,17.70
2017-09-07T21:57:01.008Z,17.60
2017-09-07T21:59:30.214Z,17.60
2017-09-07T22:01:59.485Z,17.60
2017-09-07T22:04:27.916Z,17.60
2017-09-07T22:06:56.345Z,17.70
2017-09-07T22:09:24.796Z,17.70
2017-09-07T22:11:53.490Z,17.70
2017-09-07T22:14:21.930Z,17.70
2017-09-07T22:16:50.384Z,17.70
2017-09-07T22:19:19.835Z,17.60
2017-09-07T22:21:48.253Z,17.60
2017-09-07T22:24:16.707Z,17.60
2017-09-07T22:26:45.125Z,17.60
2017-09-07T22:29:13.552Z,17.60
2017-09-07T22:31:42.014Z,17.60
2017-09-07T22:34:10.446Z,17.70
2017-09-07T22:36:38.874Z,17.70
2017-09-07T22:39:07.378Z,17.70
2017-09-07T22:41:35.857Z,17.70
2017-09-07T22:44:04.533Z,17.70
2017-09-07T22:46:32.991Z,17.70
2017-09-07T22:49:01.468Z,17.70
2017-09-07T22:51:30.658Z,17.70
2017-09-07T22:53:59.881Z,17.80
2017-09-07T22:56:28.315Z,17.70
2017-09-07T22:58:56.737Z,17.80
2017-09-07T23:01:25.177Z,17.80
2017-09-07T23:03:54.384Z,17.80
2017-09-07T23:06:23.616Z,17.70
2017-09-07T23:08:52.068Z,17.70
2017-09-07T23:11:20.502Z,17.70
2017-09-07T23:13:48.932Z,17.60
2017-09-07T23:16:17.437Z,17.70
2017-09-07T23:18:45.892Z,17.60
2017-09-07T23:21:15.076Z,17.50
2017-09-07T23:23:44.308Z,17.60
2017-09-07T23:26:12.730Z,17.50
2017-09-07T23:28:41.158Z,17.60
2017-09-07T23:31:09.659Z,17.50
2017-09-07T23:33:38.096Z,17.50
2017-09-07T23:36:07.269Z,17.50
2017-09-07T23:38:35.741Z,17.40
2017-09-07T23:41:04.199Z,17.50
2017-09-07T23:43:32.643Z,17.40
2017-09-07T23:46:01.076Z,17.40
2017-09-07T23:48:29.375Z,17.40
2017-09-07T23:50:58.579Z,17.40
2017-09-07T23:53:27.800Z,17.40
2017-09-07T23:55:56.222Z,17.30
2017-09-07T23:58:24.641Z,17.40
